Time;durP1;ratioP1;P1;durP2;ratioP2;P2;SDS_P1;SDS_P2;PMS_P1;PMS_P2;Temp;Humidity;BMP_temperature;BMP_pressure;BME280_temperature;BME280_humidity;BME280_pressure;Samples;Min_cycle;Max_cycle;Signal;HPM_P1;HPM_P2
2022/01/24 00:01:59;;;;;;;10.60;9.80;;;4.30;50.40;;;;;;20564;6841;306940;-81
2022/01/24 00:04:25;;;;;;;9.95;9.15;;;4.50;50.70;;;;;;20532;6841;283939;-81
2022/01/24 00:06:50;;;;;;;9.02;8.32;;;4.80;50.20;;;;;;20905;6642;66935;-84
2022/01/24 00:09:26;;;;;;;9.25;8.45;;;4.70;49.70;;;;;;20520;6774;305104;-83
2022/01/24 00:12:14;;;;;;;8.17;7.57;;;4.80;50.00;;;;;;20819;6759;115800;-82
2022/01/24 00:17:47;;;;;;;8.57;7.70;;;4.60;49.80;;;;;;20841;6739;116046;-84
2022/01/24 00:28:55;;;;;;;9.00;8.40;;;3.80;50.60;;;;;;20725;6726;308114;-83
2022/01/24 00:31:31;;;;;;;9.40;8.77;;;4.10;51.20;;;;;;20746;6726;282564;-82
2022/01/24 00:34:13;;;;;;;8.43;7.83;;;4.40;50.30;;;;;;20931;6726;116710;-80
2022/01/24 00:36:44;;;;;;;7.30;6.77;;;4.40;50.30;;;;;;20894;6726;118061;-81
2022/01/24 00:39:18;;;;;;;6.20;5.63;;;4.20;50.50;;;;;;20943;6726;116651;-82
2022/01/24 00:42:37;;;;;;;7.53;6.83;;;3.90;50.70;;;;;;20846;6747;117152;-81
2022/01/24 00:45:09;;;;;;;9.43;8.73;;;3.70;51.00;;;;;;20492;6815;309465;-80
2022/01/24 00:47:45;;;;;;;7.53;6.90;;;3.90;51.30;;;;;;20796;6747;116422;-81
2022/01/24 00:55:39;;;;;;;8.80;7.77;;;3.50;51.20;;;;;;20945;6624;116971;-81
2022/01/24 00:58:14;;;;;;;7.77;7.07;;;3.30;51.30;;;;;;20697;6744;117517;-86
2022/01/24 01:00:50;;;;;;;10.10;9.30;;;3.20;51.50;;;;;;20670;6744;305526;-82
2022/01/24 01:03:27;;;;;;;8.83;8.03;;;3.40;52.20;;;;;;20940;6786;116973;-80
2022/01/24 01:06:07;;;;;;;9.98;9.18;;;3.40;51.60;;;;;;20807;6709;289174;-80
2022/01/24 01:20:27;;;;;;;8.43;7.53;;;3.40;51.30;;;;;;21026;6709;117113;-81
2022/01/24 01:23:00;;;;;;;8.33;7.67;;;3.40;51.20;;;;;;20960;6724;117473;-81
2022/01/24 01:25:38;;;;;;;8.47;7.10;;;3.10;51.90;;;;;;20959;6729;116711;-80
2022/01/24 01:28:13;;;;;;;8.87;8.10;;;3.00;51.90;;;;;;20804;6729;120838;-80
2022/01/24 01:30:52;;;;;;;8.67;7.80;;;2.90;52.10;;;;;;20957;6722;116382;-80
2022/01/24 01:37:08;;;;;;;8.63;7.90;;;3.10;53.20;;;;;;21006;6707;116942;-80
2022/01/24 01:39:33;;;;;;;8.60;7.90;;;3.10;52.50;;;;;;20903;6763;116775;-80
2022/01/24 01:53:53;;;;;;;10.57;9.63;;;3.00;54.10;;;;;;20786;6707;276013;-80
2022/01/24 01:56:05;;;;;;;8.97;8.17;;;3.00;54.00;;;;;;20969;6763;115772;-80
2022/01/24 01:58:41;;;;;;;8.60;7.80;;;3.10;53.40;;;;;;20960;6763;116635;-80
2022/01/24 02:01:17;;;;;;;7.77;7.17;;;3.00;53.30;;;;;;21007;6707;119537;-80
2022/01/24 02:03:54;;;;;;;8.27;7.63;;;2.90;53.50;;;;;;21005;6707;117144;-79
2022/01/24 02:06:28;;;;;;;10.70;9.70;;;3.10;54.10;;;;;;20746;6707;308347;-80
2022/01/24 02:09:04;;;;;;;8.00;7.30;;;3.10;54.10;;;;;;21010;6707;117148;-80
2022/01/24 02:11:41;;;;;;;7.97;7.23;;;3.20;53.50;;;;;;20985;6707;116675;-80
2022/01/24 02:14:18;;;;;;;17.63;14.33;;;3.10;53.40;;;;;;21010;6707;118602;-80
2022/01/24 02:16:59;;;;;;;10.90;9.97;;;3.10;53.80;;;;;;20725;6707;311290;-80
2022/01/24 02:23:49;;;;;;;8.03;7.33;;;3.20;53.30;;;;;;20929;6725;117018;-80
2022/01/24 02:25:42;;;;;;;8.50;7.80;;;3.00;53.40;;;;;;20753;6763;120491;-81
2022/01/24 02:28:20;;;;;;;8.67;7.87;;;2.90;53.60;;;;;;20850;6707;116985;-81
2022/01/24 02:33:32;;;;;;;8.53;7.73;;;2.70;54.60;;;;;;19903;7065;117776;-81
2022/01/24 02:36:08;;;;;;;8.10;7.40;;;2.60;53.90;;;;;;20730;6763;116511;-81
2022/01/24 02:50:07;;;;;;;8.33;7.53;;;3.10;53.10;;;;;;20929;6729;117224;-81
2022/01/24 02:52:42;;;;;;;10.40;9.60;;;2.90;53.30;;;;;;20682;6729;317759;-84
2022/01/24 02:55:26;;;;;;;8.53;7.73;;;3.10;53.50;;;;;;20931;6729;116086;-83
2022/01/24 02:57:53;;;;;;;8.93;8.17;;;3.20;53.10;;;;;;20815;6729;117356;-81
2022/01/24 03:00:30;;;;;;;8.30;7.50;;;3.10;53.20;;;;;;20901;6724;118263;-81
2022/01/24 03:03:05;;;;;;;10.03;9.23;;;2.90;53.30;;;;;;20701;6724;305193;-81
2022/01/24 03:05:41;;;;;;;8.60;7.90;;;3.10;53.20;;;;;;20933;6785;116055;-81
2022/01/24 03:08:16;;;;;;;10.30;9.40;;;3.20;52.80;;;;;;20519;6724;334115;-81
2022/01/24 03:10:53;;;;;;;10.20;9.30;;;3.70;52.00;;;;;;20401;6744;276673;-83
2022/01/24 03:16:04;;;;;;;9.93;9.17;;;3.70;51.70;;;;;;20679;6744;277181;-81
2022/01/24 03:18:40;;;;;;;9.13;8.33;;;3.70;51.70;;;;;;20707;6795;117126;-81
2022/01/24 03:21:19;;;;;;;8.47;7.77;;;3.50;51.40;;;;;;20912;6739;115909;-82
2022/01/24 03:23:51;;;;;;;10.83;9.93;;;3.30;51.70;;;;;;20697;6739;305244;-81
2022/01/24 03:26:29;;;;;;;8.80;8.00;;;3.30;51.90;;;;;;20797;6759;117980;-82
2022/01/24 03:29:04;;;;;;;8.73;8.03;;;3.30;51.80;;;;;;20994;6709;116050;-82
2022/01/24 03:31:49;;;;;;;10.93;10.03;;;3.00;52.10;;;;;;20739;6729;279094;-82
2022/01/24 03:34:17;;;;;;;9.53;8.73;;;3.20;52.50;;;;;;20891;6724;116602;-82
2022/01/24 03:36:52;;;;;;;8.83;8.10;;;3.10;52.00;;;;;;20858;6724;117303;-81
2022/01/24 03:39:28;;;;;;;8.67;7.97;;;2.90;52.20;;;;;;20917;6724;119479;-82
2022/01/24 03:42:03;;;;;;;9.70;8.20;;;2.70;52.50;;;;;;20941;6729;117320;-82
2022/01/24 03:44:44;;;;;;;8.00;7.30;;;2.60;52.80;;;;;;20859;6748;117460;-81
2022/01/24 03:47:40;;;;;;;8.67;7.67;;;2.40;53.00;;;;;;20859;6723;117712;-82
2022/01/24 03:50:00;;;;;;;11.13;10.23;;;2.30;53.00;;;;;;20684;6784;281466;-95
2022/01/24 03:52:30;;;;;;;11.77;10.77;;;2.60;53.90;;;;;;20724;6724;275986;-82
2022/01/24 03:55:06;;;;;;;11.60;10.70;;;3.00;53.20;;;;;;20735;6724;300881;-82
2022/01/24 03:57:41;;;;;;;9.27;8.57;;;3.30;52.60;;;;;;20840;6729;117756;-82
2022/01/24 04:00:18;;;;;;;10.70;9.85;;;3.20;52.10;;;;;;20781;6709;337704;-82
2022/01/24 04:02:54;;;;;;;9.43;8.57;;;3.30;52.40;;;;;;20942;6729;117326;-81
2022/01/24 04:05:29;;;;;;;9.30;8.50;;;3.20;52.20;;;;;;20948;6724;115749;-81
2022/01/24 04:08:06;;;;;;;9.20;8.20;;;2.90;52.40;;;;;;20707;6733;117042;-82
2022/01/24 04:10:46;;;;;;;9.23;8.33;;;2.70;52.80;;;;;;20866;6744;116756;-82
2022/01/24 04:13:38;;;;;;;9.27;8.47;;;2.50;53.10;;;;;;20935;6732;117243;-81
2022/01/24 04:16:24;;;;;;;10.90;10.00;;;2.40;53.40;;;;;;20742;6744;305020;-81
2022/01/24 04:18:56;;;;;;;11.80;10.80;;;2.70;54.10;;;;;;20686;6786;327395;-80
2022/01/24 04:21:31;;;;;;;8.60;7.90;;;3.10;53.50;;;;;;20944;6744;116518;-81
2022/01/24 04:24:06;;;;;;;10.93;10.07;;;3.10;52.80;;;;;;20723;6729;308472;-80
2022/01/24 04:26:40;;;;;;;9.23;8.50;;;3.20;52.80;;;;;;20900;6724;118049;-81
2022/01/24 04:29:18;;;;;;;10.68;9.82;;;3.10;52.50;;;;;;20789;6709;305306;-81
2022/01/24 04:31:54;;;;;;;9.47;8.57;;;3.20;52.20;;;;;;21007;6709;118095;-81
2022/01/24 04:34:30;;;;;;;11.20;10.30;;;3.20;52.10;;;;;;20770;6709;305503;-81
2022/01/24 04:37:07;;;;;;;11.87;10.93;;;3.10;52.00;;;;;;20705;6709;288202;-80
2022/01/24 04:39:44;;;;;;;11.80;10.77;;;3.40;51.60;;;;;;20781;6709;333921;-80
2022/01/24 04:42:28;;;;;;;10.20;8.67;;;3.60;51.20;;;;;;20990;6709;116851;-80
2022/01/24 04:45:21;;;;;;;10.87;8.13;;;3.50;51.10;;;;;;20964;6718;116248;-81
2022/01/24 04:47:38;;;;;;;9.97;8.97;;;3.10;51.50;;;;;;20871;6766;120553;-80
2022/01/24 04:50:40;;;;;;;9.67;8.77;;;2.90;52.10;;;;;;21010;6709;115609;-81
2022/01/24 04:55:34;;;;;;;12.53;11.43;;;2.40;52.70;;;;;;20099;6774;291921;-82
2022/01/24 04:58:10;;;;;;;12.20;11.00;;;2.90;52.40;;;;;;20537;6744;280743;-81
2022/01/24 05:00:45;;;;;;;11.75;10.75;;;2.90;52.40;;;;;;20697;6711;333081;-81
2022/01/24 05:03:21;;;;;;;11.10;10.10;;;3.20;51.80;;;;;;20783;6711;274845;-81
2022/01/24 05:05:57;;;;;;;10.97;9.60;;;3.40;51.10;;;;;;20942;6729;117493;-81
2022/01/24 05:08:32;;;;;;;10.80;9.70;;;3.30;51.20;;;;;;20772;6729;117921;-81
2022/01/24 05:11:12;;;;;;;12.57;11.40;;;2.90;51.50;;;;;;20666;6737;324924;-81
2022/01/24 05:25:27;;;;;;;12.60;11.50;;;3.00;51.60;;;;;;20735;6729;279079;-81
2022/01/24 05:28:05;;;;;;;11.23;10.03;;;2.90;51.40;;;;;;20803;6729;117604;-81
2022/01/24 05:30:41;;;;;;;11.30;10.17;;;2.60;51.80;;;;;;20925;6729;117147;-82
2022/01/24 05:33:17;;;;;;;11.13;9.93;;;2.60;51.80;;;;;;20973;6729;116898;-80
2022/01/24 05:35:58;;;;;;;10.40;9.47;;;2.30;52.20;;;;;;21007;6714;118656;-80
2022/01/24 05:38:28;;;;;;;10.17;9.27;;;2.10;52.50;;;;;;20823;6729;118480;-80
2022/01/24 05:41:03;;;;;;;10.37;9.47;;;2.00;52.90;;;;;;20977;6733;116230;-80
2022/01/24 05:43:40;;;;;;;10.93;9.83;;;1.90;53.30;;;;;;20927;6729;116626;-84
2022/01/24 05:46:27;;;;;;;14.20;12.80;;;1.80;53.60;;;;;;20708;6729;306637;-83
2022/01/24 05:48:54;;;;;;;14.23;13.02;;;2.10;54.50;;;;;;20693;6744;306126;-83
2022/01/24 05:51:28;;;;;;;16.12;14.63;;;2.50;54.10;;;;;;20715;6744;336015;-84
2022/01/24 05:54:07;;;;;;;12.70;11.40;;;2.90;53.10;;;;;;20918;6744;119159;-83
2022/01/24 05:56:40;;;;;;;14.95;13.55;;;2.80;53.00;;;;;;20657;6729;280147;-83
2022/01/24 05:59:16;;;;;;;12.33;11.27;;;2.90;53.30;;;;;;20980;6714;117174;-84
2022/01/24 06:01:51;;;;;;;14.77;13.45;;;2.90;53.10;;;;;;20723;6729;335536;-83
2022/01/24 06:04:27;;;;;;;11.73;10.73;;;3.00;54.10;;;;;;20991;6729;117415;-83
2022/01/24 06:07:03;;;;;;;13.50;12.40;;;2.90;53.30;;;;;;20685;6729;314960;-83
2022/01/24 06:09:39;;;;;;;12.63;11.43;;;2.90;52.80;;;;;;21031;6707;123079;-85
2022/01/24 06:12:15;;;;;;;14.27;12.93;;;2.90;52.70;;;;;;20823;6706;333806;-83
2022/01/24 06:14:51;;;;;;;13.62;12.32;;;3.00;53.00;;;;;;20760;6707;333972;-83
2022/01/24 06:17:28;;;;;;;13.87;12.57;;;3.10;51.90;;;;;;20848;6707;118309;-83
2022/01/24 06:20:03;;;;;;;10.77;9.77;;;3.10;51.90;;;;;;21004;6707;117004;-83
2022/01/24 06:22:39;;;;;;;10.67;9.73;;;2.80;52.40;;;;;;20995;6707;116941;-83
2022/01/24 06:25:20;;;;;;;12.50;10.77;;;2.50;52.90;;;;;;21010;6707;115932;-88
2022/01/24 06:27:50;;;;;;;10.07;9.07;;;2.30;53.30;;;;;;20843;6707;116439;-84
2022/01/24 06:30:26;;;;;;;12.33;9.27;;;2.20;53.70;;;;;;20977;6707;118079;-85
2022/01/24 06:33:01;;;;;;;12.83;11.67;;;2.10;54.00;;;;;;20797;6707;304524;-84
2022/01/24 06:35:37;;;;;;;11.33;10.23;;;2.30;54.20;;;;;;21003;6707;121353;-85
2022/01/24 06:38:13;;;;;;;10.40;9.40;;;2.10;53.80;;;;;;20806;6707;117465;-91
2022/01/24 06:40:50;;;;;;;9.77;8.80;;;2.10;53.80;;;;;;20873;6789;118350;-85
2022/01/24 06:43:25;;;;;;;10.27;9.30;;;2.00;54.00;;;;;;20961;6724;115893;-84
2022/01/24 06:46:01;;;;;;;10.90;9.83;;;1.90;54.20;;;;;;20946;6724;117359;-84
2022/01/24 06:48:37;;;;;;;10.23;9.23;;;1.80;54.30;;;;;;20655;6807;123647;-86
2022/01/24 06:51:12;;;;;;;13.03;11.83;;;1.70;54.50;;;;;;20702;6726;307249;-87
2022/01/24 06:53:48;;;;;;;11.60;10.43;;;2.00;54.90;;;;;;20934;6730;116101;-85
2022/01/24 06:56:23;;;;;;;10.13;9.27;;;2.10;54.40;;;;;;20894;6722;117111;-85
2022/01/24 06:59:00;;;;;;;10.00;9.10;;;1.90;55.10;;;;;;20835;6747;121427;-85
2022/01/24 07:01:35;;;;;;;13.00;11.80;;;1.90;54.70;;;;;;20705;6724;330867;-88
2022/01/24 07:04:11;;;;;;;11.37;9.97;;;2.20;55.10;;;;;;20918;6724;117973;-89
2022/01/24 07:06:46;;;;;;;13.10;11.67;;;2.30;54.50;;;;;;20923;6714;116975;-85
2022/01/24 07:09:22;;;;;;;16.37;14.87;;;2.30;54.60;;;;;;20774;6729;314519;-85
2022/01/24 07:11:58;;;;;;;15.38;14.07;;;2.80;53.30;;;;;;20754;6744;333628;-86
2022/01/24 07:14:34;;;;;;;14.57;13.15;;;2.80;53.30;;;;;;20754;6729;333401;-85
2022/01/24 07:19:49;;;;;;;16.13;14.43;;;3.10;52.80;;;;;;20775;6799;118237;-90
2022/01/24 07:22:28;;;;;;;20.83;18.73;;;2.90;53.20;;;;;;20655;6744;339964;-86
2022/01/24 07:25:01;;;;;;;18.03;15.03;;;3.00;53.30;;;;;;20917;6744;118240;-85
2022/01/24 07:27:37;;;;;;;17.03;14.97;;;3.10;53.30;;;;;;20789;6729;117626;-88
2022/01/24 07:30:15;;;;;;;13.47;12.17;;;2.90;53.60;;;;;;20939;6774;117141;-92
2022/01/24 07:32:51;;;;;;;14.63;12.67;;;2.80;53.90;;;;;;20947;6709;118646;-90
2022/01/24 07:35:36;;;;;;;17.20;15.50;;;2.70;54.20;;;;;;20718;6729;306193;-90
2022/01/24 07:38:12;;;;;;;;;;;;;;;;;;;;;
2022/01/24 07:40:42;;;;;;;16.83;15.33;;;3.20;54.00;;;;;;20578;6724;293283;-89
2022/01/24 07:43:14;;;;;;;16.08;14.68;;;3.20;54.00;;;;;;20714;6729;335196;-91
2022/01/24 07:45:59;;;;;;;;;;;;;;;;;;;;;
2022/01/24 07:48:25;;;;;;;15.25;13.85;;;3.70;53.20;;;;;;20210;6729;305737;-91
2022/01/24 07:51:11;;;;;;;;;;;;;;;;;;;;;
2022/01/24 07:53:46;;;;;;;;;;;;;;;;;;;;;
2022/01/24 07:56:15;;;;;;;15.40;13.87;;;4.30;52.00;;;;;;20871;6737;116957;-91
2022/01/24 07:58:50;;;;;;;18.40;16.80;;;4.20;51.80;;;;;;20639;6722;306911;-88
2022/01/24 08:01:26;;;;;;;15.43;12.93;;;4.30;52.10;;;;;;20876;6728;116481;-90
2022/01/24 08:04:02;;;;;;;13.53;12.17;;;4.20;51.90;;;;;;20785;6728;117476;-91
2022/01/24 08:06:46;;;;;;;17.23;15.73;;;4.00;52.30;;;;;;20482;6758;322597;-90
2022/01/24 08:09:13;;;;;;;18.50;16.90;;;4.00;52.40;;;;;;20551;6759;307728;-88
2022/01/24 08:12:05;;;;;;;17.37;15.87;;;4.60;51.60;;;;;;20608;6759;306187;-90
2022/01/24 08:14:41;;;;;;;;;;;;;;;;;;;;;
2022/01/24 08:17:07;;;;;;;17.07;15.50;;;4.50;51.60;;;;;;20584;6729;322313;-92
2022/01/24 08:19:52;;;;;;;;;;;;;;;;;;;;;
2022/01/24 08:22:28;;;;;;;14.33;12.93;;;4.70;51.40;;;;;;20847;6744;115987;-96
2022/01/24 08:25:14;;;;;;;14.53;13.00;;;4.70;51.40;;;;;;20866;6739;117475;-94
2022/01/24 08:27:33;;;;;;;16.47;13.80;;;4.50;51.90;;;;;;20828;6709;117416;-91
2022/01/24 08:30:11;;;;;;;14.63;13.23;;;4.30;52.50;;;;;;20918;6729;117249;-87
2022/01/24 08:32:44;;;;;;;13.80;12.50;;;4.30;53.00;;;;;;20958;6729;116947;-86
2022/01/24 08:35:20;;;;;;;16.40;15.00;;;4.60;53.30;;;;;;20720;6729;286978;-84
2022/01/24 08:37:56;;;;;;;16.43;14.73;;;4.60;53.20;;;;;;20796;6729;117497;-84
2022/01/24 08:40:33;;;;;;;16.83;15.33;;;4.80;52.80;;;;;;20746;6714;304519;-84
2022/01/24 08:43:07;;;;;;;15.40;14.10;;;5.20;52.50;;;;;;20744;6714;305055;-83
2022/01/24 08:45:52;;;;;;;14.57;13.23;;;5.60;51.60;;;;;;20970;6714;117107;-83
2022/01/24 08:48:19;;;;;;;12.93;11.93;;;5.80;52.00;;;;;;20585;6714;306000;-88
2022/01/24 08:51:04;;;;;;;11.43;10.63;;;6.50;48.90;;;;;;20731;6714;334941;-85
2022/01/24 08:53:33;;;;;;;10.90;10.10;;;6.50;48.90;;;;;;20985;6714;120687;-87
2022/01/24 08:56:23;;;;;;;;;;;;;;;;;;;;;
2022/01/24 08:58:49;;;;;;;10.90;10.00;;;6.80;48.70;;;;;;20930;6770;117497;-83
2022/01/24 09:01:25;;;;;;;11.03;10.07;;;6.80;48.70;;;;;;20978;6714;116593;-79
2022/01/24 09:04:01;;;;;;;10.93;10.03;;;6.70;49.10;;;;;;20979;6714;117069;-83
2022/01/24 09:06:36;;;;;;;11.47;10.60;;;6.60;49.30;;;;;;20704;6714;307433;-84
2022/01/24 09:09:14;;;;;;;10.65;9.75;;;6.80;48.50;;;;;;20701;6729;335539;-85
2022/01/24 09:11:51;;;;;;;11.43;10.57;;;7.10;47.20;;;;;;20948;6729;118580;-81
2022/01/24 09:14:23;;;;;;;10.45;9.68;;;7.20;47.30;;;;;;20672;6744;306690;-84
2022/01/24 09:16:58;;;;;;;9.80;9.10;;;7.40;46.50;;;;;;20836;6729;117774;-83
2022/01/24 09:19:34;;;;;;;8.80;8.07;;;7.40;46.70;;;;;;20989;6709;116110;-81
2022/01/24 09:22:10;;;;;;;9.33;8.30;;;7.30;47.10;;;;;;20875;6785;120940;-84
2022/01/24 09:24:46;;;;;;;8.80;8.20;;;7.10;47.50;;;;;;20977;6709;115894;-81
2022/01/24 09:27:22;;;;;;;10.70;9.98;;;7.00;47.40;;;;;;20610;6733;338980;-80
2022/01/24 09:29:57;;;;;;;7.17;6.67;;;7.30;46.50;;;;;;20885;6744;116887;-81
2022/01/24 09:32:36;;;;;;;10.85;9.90;;;7.50;45.80;;;;;;20710;6724;309995;-83
2022/01/24 09:35:09;;;;;;;7.87;7.37;;;7.50;45.80;;;;;;20925;6724;118145;-81
2022/01/24 09:37:48;;;;;;;10.57;9.83;;;7.60;45.90;;;;;;20599;6786;312411;-85
2022/01/24 09:40:22;;;;;;;8.57;8.07;;;7.70;45.50;;;;;;20732;6724;305946;-81
2022/01/24 09:43:05;;;;;;;9.13;8.53;;;8.10;44.60;;;;;;20977;6709;116542;-80
2022/01/24 09:45:32;;;;;;;9.50;8.80;;;8.10;44.80;;;;;;20685;6729;278744;-81
2022/01/24 09:48:08;;;;;;;9.90;9.20;;;8.20;44.40;;;;;;20550;6729;307384;-80
2022/01/24 09:50:43;;;;;;;11.03;8.13;;;8.40;43.50;;;;;;20886;6729;117931;-79
2022/01/24 09:53:18;;;;;;;13.20;12.10;;;8.30;43.80;;;;;;20691;6732;334553;-95
2022/01/24 09:55:54;;;;;;;8.07;7.47;;;8.40;43.90;;;;;;20812;6744;117134;-81
2022/01/24 09:58:32;;;;;;;8.83;8.23;;;8.40;44.30;;;;;;20415;6742;280504;-80
2022/01/24 10:01:08;;;;;;;10.70;9.80;;;8.40;43.40;;;;;;20650;6739;304736;-80
2022/01/24 10:04:06;;;;;;;7.83;7.33;;;8.70;43.20;;;;;;20806;6751;117465;-78
2022/01/24 10:07:02;;;;;;;7.23;6.77;;;8.70;43.40;;;;;;20750;6811;116701;-80
2022/01/24 10:09:45;;;;;;;7.93;7.33;;;8.40;43.90;;;;;;20984;6709;117205;-80
2022/01/24 10:18:04;;;;;;;7.80;7.10;;;7.90;45.80;;;;;;20651;6782;117359;-81
2022/01/24 10:20:42;;;;;;;8.50;7.90;;;7.80;45.20;;;;;;20719;6722;300616;-81
2022/01/24 10:23:21;;;;;;;7.50;7.00;;;8.60;44.10;;;;;;20743;6722;323883;-81
2022/01/24 10:26:02;;;;;;;8.53;7.73;;;8.50;44.00;;;;;;20880;6747;123085;-81
2022/01/24 10:28:38;;;;;;;8.30;7.47;;;8.70;44.00;;;;;;20672;6810;117448;-82
2022/01/24 10:31:28;;;;;;;6.47;6.07;;;8.60;44.20;;;;;;20872;6744;117163;-80
2022/01/24 10:34:05;;;;;;;8.43;7.77;;;8.50;44.60;;;;;;20666;6747;305115;-81
2022/01/24 10:36:40;;;;;;;10.20;9.30;;;8.70;43.50;;;;;;20622;6747;278548;-80
2022/01/24 10:39:32;;;;;;;9.90;9.17;;;9.10;42.90;;;;;;20713;6729;305318;-81
2022/01/24 10:42:22;;;;;;;8.50;7.80;;;9.40;42.10;;;;;;20990;6710;116563;-80
2022/01/24 10:44:43;;;;;;;15.80;10.63;;;9.30;42.30;;;;;;20949;6709;117164;-81
2022/01/24 10:47:23;;;;;;;9.07;8.17;;;9.00;42.80;;;;;;20669;6709;322198;-79
2022/01/24 10:49:58;;;;;;;9.98;9.07;;;9.10;42.70;;;;;;20740;6724;304270;-82
2022/01/24 10:52:33;;;;;;;7.78;7.07;;;9.40;42.30;;;;;;20708;6724;333930;-82
2022/01/24 10:55:09;;;;;;;15.57;10.93;;;9.60;42.00;;;;;;20946;6724;116365;-79
2022/01/24 10:57:44;;;;;;;8.83;7.23;;;9.60;42.20;;;;;;20820;6729;116364;-80
2022/01/24 11:00:23;;;;;;;26.93;13.43;;;9.40;42.60;;;;;;20930;6729;116122;-81
2022/01/24 11:03:03;;;;;;;15.47;12.97;;;9.10;42.90;;;;;;20974;6709;118337;-81
2022/01/24 11:05:46;;;;;;;323.20;156.87;;;9.00;43.20;;;;;;20945;6729;121066;-80
2022/01/24 11:08:14;;;;;;;10.20;8.10;;;8.80;43.40;;;;;;20733;6724;123770;-80
2022/01/24 11:10:51;;;;;;;12.23;8.63;;;8.70;43.70;;;;;;20857;6744;116991;-81
2022/01/24 11:13:31;;;;;;;17.37;11.40;;;8.70;44.10;;;;;;20917;6729;116936;-80
2022/01/24 11:16:07;;;;;;;7.03;6.60;;;8.70;44.40;;;;;;20726;6724;305478;-82
2022/01/24 11:18:38;;;;;;;6.93;6.43;;;9.30;42.80;;;;;;20510;6786;307149;-82
2022/01/24 11:21:15;;;;;;;22.80;10.57;;;9.30;42.80;;;;;;20925;6729;117134;-80
2022/01/24 11:23:49;;;;;;;6.87;6.37;;;9.40;42.60;;;;;;20734;6724;305668;-80
2022/01/24 11:26:25;;;;;;;7.87;7.27;;;9.50;41.60;;;;;;20895;6729;117317;-81
2022/01/24 11:29:00;;;;;;;8.23;6.63;;;9.40;41.90;;;;;;20932;6724;117444;-81
2022/01/24 11:31:56;;;;;;;24.20;12.80;;;9.30;42.60;;;;;;20768;6709;335217;-80
2022/01/24 11:34:34;;;;;;;6.90;6.40;;;9.40;42.50;;;;;;20807;6766;147323;-82
2022/01/24 11:37:13;;;;;;;28.97;13.73;;;9.40;42.50;;;;;;20920;6709;116153;-82
2022/01/24 11:39:46;;;;;;;20.63;10.27;;;9.30;42.80;;;;;;20891;6785;117337;-82
2022/01/24 11:42:27;;;;;;;7.13;6.73;;;9.10;43.00;;;;;;20719;6724;306027;-86
2022/01/24 11:45:09;;;;;;;18.03;11.43;;;9.30;42.40;;;;;;20721;6724;310576;-82
2022/01/24 11:47:39;;;;;;;8.17;7.50;;;9.60;41.90;;;;;;20567;6724;337921;-83
2022/01/24 11:50:24;;;;;;;6.57;6.03;;;9.90;41.60;;;;;;20862;6729;120756;-81
2022/01/24 11:53:00;;;;;;;15.50;13.40;;;9.80;41.60;;;;;;20923;6729;119048;-81
2022/01/24 11:55:38;;;;;;;14.23;12.80;;;9.30;43.20;;;;;;20870;6744;117899;-81
2022/01/24 11:58:13;;;;;;;9.63;9.02;;;9.30;42.60;;;;;;20608;6724;311435;-85
2022/01/24 12:00:50;;;;;;;6.53;6.10;;;9.40;42.40;;;;;;20902;6724;116887;-84
2022/01/24 12:03:26;;;;;;;9.10;8.40;;;9.40;42.40;;;;;;20982;6709;117101;-85
2022/01/24 12:06:04;;;;;;;6.43;6.03;;;9.20;42.70;;;;;;20986;6709;116662;-83
2022/01/24 12:08:38;;;;;;;6.87;6.37;;;9.10;43.00;;;;;;20754;6780;117586;-84
2022/01/24 12:11:23;;;;;;;6.63;6.13;;;9.00;43.30;;;;;;20926;6724;120201;-84
2022/01/24 12:14:01;;;;;;;6.90;6.40;;;8.80;43.80;;;;;;20950;6729;115658;-83
2022/01/24 12:16:32;;;;;;;6.30;5.90;;;8.80;43.60;;;;;;20876;6724;120475;-83
2022/01/24 12:19:08;;;;;;;12.30;10.37;;;8.80;43.90;;;;;;20963;6724;116802;-86
2022/01/24 12:21:43;;;;;;;6.95;6.55;;;8.80;44.10;;;;;;20776;6724;304351;-86
2022/01/24 12:24:21;;;;;;;6.80;6.40;;;9.00;43.30;;;;;;20459;6729;277047;-95
2022/01/24 12:26:55;;;;;;;6.67;6.27;;;9.40;43.20;;;;;;20884;6612;118376;-85
2022/01/24 12:29:31;;;;;;;7.60;7.00;;;9.50;43.20;;;;;;20925;6729;115898;-83
2022/01/24 12:32:06;;;;;;;8.53;7.73;;;9.40;43.30;;;;;;20726;6729;335191;-83
2022/01/24 12:34:41;;;;;;;6.07;5.67;;;9.50;43.00;;;;;;20899;6786;116845;-83
2022/01/24 12:37:25;;;;;;;7.23;6.53;;;9.60;41.60;;;;;;20620;6724;337929;-83
2022/01/24 12:40:06;;;;;;;10.20;9.23;;;9.60;41.60;;;;;;20702;6726;305697;-83
2022/01/24 12:42:51;;;;;;;11.00;9.80;;;9.90;41.40;;;;;;20884;6732;117094;-83
2022/01/24 12:48:21;;;;;;;16.58;15.02;;;9.60;42.10;;;;;;20547;6724;329799;-84
2022/01/24 12:50:58;;;;;;;6.10;5.80;;;9.70;42.30;;;;;;20709;6729;305649;-83
2022/01/24 12:53:36;;;;;;;6.40;5.80;;;9.90;41.00;;;;;;20948;6729;67548;-81
2022/01/24 12:56:13;;;;;;;6.23;5.73;;;9.90;41.20;;;;;;20925;6729;116984;-82
2022/01/24 12:58:49;;;;;;;5.27;4.97;;;9.60;41.80;;;;;;20897;6729;117781;-83
2022/01/24 13:01:24;;;;;;;6.63;5.43;;;9.40;42.30;;;;;;20915;6729;117819;-83
2022/01/24 13:04:08;;;;;;;5.17;4.87;;;9.30;42.70;;;;;;20928;6729;116669;-84
2022/01/24 13:06:44;;;;;;;5.00;4.70;;;9.20;42.90;;;;;;20871;6729;119790;-80
2022/01/24 13:09:25;;;;;;;5.17;4.73;;;8.90;43.20;;;;;;20982;6709;117132;-82
2022/01/24 13:11:56;;;;;;;5.85;5.45;;;8.90;43.10;;;;;;20710;6777;304679;-81
2022/01/24 13:14:45;;;;;;;5.85;5.45;;;9.60;42.40;;;;;;20727;6774;275263;-82
2022/01/24 13:23:09;;;;;;;5.07;4.53;;;9.80;42.10;;;;;;20936;6728;122689;-83
2022/01/24 13:25:43;;;;;;;4.90;4.60;;;9.80;42.30;;;;;;20987;6709;116574;-82
2022/01/24 13:28:20;;;;;;;5.62;5.22;;;9.60;42.40;;;;;;20509;6732;280811;-82
2022/01/24 13:31:00;;;;;;;6.30;5.62;;;9.60;41.90;;;;;;20684;6732;323924;-83
2022/01/24 13:33:33;;;;;;;5.50;5.10;;;10.00;40.70;;;;;;20694;6732;306434;-83
2022/01/24 13:36:16;;;;;;;5.67;5.27;;;10.20;39.50;;;;;;20795;6732;119262;-95
2022/01/24 13:38:48;;;;;;;81.80;64.37;;;10.10;39.80;;;;;;20860;6744;116949;-83
2022/01/24 13:41:24;;;;;;;5.27;4.87;;;9.90;41.40;;;;;;20825;6762;117798;-83
2022/01/24 13:44:09;;;;;;;5.50;5.10;;;9.60;41.80;;;;;;20622;6759;306282;-81
2022/01/24 13:46:35;;;;;;;4.50;4.20;;;9.70;42.50;;;;;;20791;6757;116157;-79
2022/01/24 13:49:16;;;;;;;4.43;4.13;;;9.70;42.50;;;;;;20861;6742;117390;-81
2022/01/24 13:51:51;;;;;;;4.73;4.37;;;9.60;42.80;;;;;;20897;6732;116841;-81
2022/01/24 13:54:26;;;;;;;4.90;4.60;;;9.50;42.60;;;;;;20660;6747;340787;-83
2022/01/24 13:57:09;;;;;;;4.40;4.10;;;9.50;42.60;;;;;;20757;6757;123196;-81
2022/01/24 13:59:43;;;;;;;5.13;4.70;;;9.50;42.50;;;;;;20915;6728;116815;-81
2022/01/24 14:02:29;;;;;;;4.40;4.10;;;9.40;42.80;;;;;;20872;6743;117318;-81
2022/01/24 14:05:01;;;;;;;4.27;3.97;;;9.20;43.00;;;;;;20860;6747;115860;-82
2022/01/24 14:07:33;;;;;;;4.95;4.55;;;9.10;43.30;;;;;;20568;6747;336819;-79
2022/01/24 14:10:11;;;;;;;4.90;4.50;;;9.30;43.00;;;;;;20907;6743;117774;-84
2022/01/24 14:12:50;;;;;;;4.30;4.00;;;9.30;42.80;;;;;;20871;6754;119652;-79
2022/01/24 14:18:26;;;;;;;4.70;4.40;;;9.10;43.30;;;;;;20555;6615;311618;-79
2022/01/24 14:20:56;;;;;;;4.47;4.17;;;9.40;43.20;;;;;;20891;6739;115710;-82
2022/01/24 14:23:37;;;;;;;5.07;4.20;;;9.40;43.00;;;;;;20846;6804;116963;-82
2022/01/24 14:26:30;;;;;;;4.30;3.90;;;9.30;43.10;;;;;;20865;6743;122246;-84
2022/01/24 14:29:11;;;;;;;4.97;4.50;;;9.30;43.30;;;;;;20598;6762;311649;-81
2022/01/24 14:31:52;;;;;;;5.57;5.07;;;9.30;43.30;;;;;;20631;6744;307099;-83
2022/01/24 14:34:46;;;;;;;;;;;;;;;;;;;;;
2022/01/24 14:37:07;;;;;;;5.20;4.80;;;9.60;42.40;;;;;;20614;6782;340406;-82
2022/01/24 14:40:14;;;;;;;;;;;;;;;;;;;;;
2022/01/24 14:42:45;;;;;;;4.57;4.17;;;10.00;40.90;;;;;;20053;6781;121538;-81
2022/01/24 14:45:10;;;;;;;4.97;4.57;;;9.90;42.10;;;;;;20588;6815;282365;-82
2022/01/24 14:47:46;;;;;;;4.97;4.40;;;9.90;42.00;;;;;;20754;6744;121115;-84
2022/01/24 14:50:21;;;;;;;4.20;3.90;;;9.80;42.10;;;;;;20942;6729;116691;-83
2022/01/24 14:52:59;;;;;;;16.27;14.53;;;9.50;42.40;;;;;;20935;6729;117352;-83
2022/01/24 14:55:32;;;;;;;5.32;4.95;;;9.30;42.70;;;;;;20709;6724;335064;-82
2022/01/24 14:58:08;;;;;;;5.13;4.73;;;9.40;43.10;;;;;;20849;6709;117462;-83
2022/01/24 15:00:44;;;;;;;5.32;4.82;;;9.40;43.10;;;;;;20757;6709;304955;-83
2022/01/24 15:03:19;;;;;;;4.90;4.57;;;9.50;42.30;;;;;;20998;6709;116743;-83
2022/01/24 15:05:56;;;;;;;5.55;4.90;;;9.50;42.20;;;;;;20722;6729;275653;-84
2022/01/24 15:08:30;;;;;;;4.87;4.47;;;9.60;41.90;;;;;;20526;6729;308505;-84
2022/01/24 15:11:06;;;;;;;5.53;4.60;;;9.80;41.60;;;;;;20713;6729;305556;-85
2022/01/24 15:13:48;;;;;;;5.40;4.90;;;10.10;40.10;;;;;;20660;6744;282873;-82
2022/01/24 15:16:18;;;;;;;4.57;4.28;;;10.10;40.10;;;;;;20734;6724;275681;-84